Time;durP1;ratioP1;P1;durP2;ratioP2;P2;SDS_P1;SDS_P2;PMS_P1;PMS_P2;Temp;Humidity;BMP_temperature;BMP_pressure;BME280_temperature;BME280_humidity;BME280_pressure;Samples;Min_cycle;Max_cycle;Signal;HPM_P1;HPM_P2
2021/12/05 00:22:26;;;;;;;1.30;0.77;;;;;;;10.84;72.53;98548.78;5135783;27;20164;-89
2021/12/05 00:24:56;;;;;;;2.23;1.00;;;;;;;10.94;71.98;98550.72;5117548;27;20230;-88
2021/12/05 00:27:28;;;;;;;1.17;0.50;;;;;;;11.04;71.16;98549.22;5118083;27;20179;-88
2021/12/05 00:30:13;;;;;;;3.30;1.30;;;;;;;11.11;71.28;98544.41;5136015;27;20656;-88
2021/12/05 00:59:13;;;;;;;6.83;1.90;;;;;;;10.86;71.50;98537.25;5135504;27;20608;-89
2021/12/05 01:02:14;;;;;;;3.83;1.33;;;;;;;10.71;72.22;98534.78;5134746;27;20275;-88
2021/12/05 01:14:32;;;;;;;3.83;1.67;;;;;;;11.05;71.55;98543.03;5135328;27;20687;-89
2021/12/05 01:16:59;;;;;;;5.03;1.73;;;;;;;11.21;71.18;98553.38;5116811;27;20642;-89
2021/12/05 01:19:26;;;;;;;4.67;2.10;;;;;;;11.30;70.92;98549.31;5116778;27;20181;-89
2021/12/05 01:21:57;;;;;;;2.87;1.63;;;;;;;11.39;70.77;98546.09;5135500;27;20221;-89
2021/12/05 01:29:50;;;;;;;3.23;1.60;;;;;;;11.28;70.40;98541.53;5109576;27;20250;-88
2021/12/05 01:48:56;;;;;;;1.83;1.10;;;;;;;11.10;70.92;98519.97;5134558;27;20155;-89
2021/12/05 02:01:11;;;;;;;1.20;0.87;;;;;;;10.93;71.31;98495.75;5134566;28;20265;-89
2021/12/05 02:12:36;;;;;;;1.53;0.77;;;;;;;10.89;72.51;98504.75;5108864;28;20655;-88
2021/12/05 02:31:56;;;;;;;4.33;1.57;;;;;;;10.75;72.77;98487.28;5134379;28;20196;-89
2021/12/05 02:37:14;;;;;;;2.67;1.30;;;;;;;10.86;72.59;98487.44;5134831;28;20612;-89
2021/12/05 02:39:52;;;;;;;2.47;0.87;;;;;;;10.87;72.69;98488.31;5133931;28;20171;-89
2021/12/05 02:42:36;;;;;;;1.77;0.97;;;;;;;10.92;72.92;98496.72;5116037;28;20692;-88
2021/12/05 02:45:06;;;;;;;2.73;1.13;;;;;;;10.93;72.71;98495.75;5116318;28;20169;-89
2021/12/05 02:47:33;;;;;;;3.10;1.17;;;;;;;10.98;71.62;98496.28;5115813;28;20195;-89
2021/12/05 02:50:00;;;;;;;2.23;1.23;;;;;;;10.94;71.87;98498.28;5116189;28;20189;-89
2021/12/05 02:52:32;;;;;;;3.37;1.53;;;;;;;10.97;71.38;98494.63;5116044;28;20178;-89
2021/12/05 02:55:11;;;;;;;2.53;1.20;;;;;;;10.97;70.93;98492.84;5115808;28;20186;-89
2021/12/05 03:00:12;;;;;;;2.97;0.83;;;;;;;10.85;71.69;98487.53;5134119;28;20276;-89
2021/12/05 03:02:41;;;;;;;3.60;1.63;;;;;;;10.87;71.88;98485.69;5116704;28;20167;-89
2021/12/05 03:05:11;;;;;;;3.60;1.50;;;;;;;10.80;71.70;98485.22;5119985;27;20175;-89
2021/12/05 03:07:41;;;;;;;2.63;1.20;;;;;;;10.75;71.86;98476.81;5137324;27;20541;-89
2021/12/05 03:10:11;;;;;;;7.70;2.00;;;;;;;10.77;71.68;98481.97;5137622;27;20245;-89
2021/12/05 03:12:38;;;;;;;3.37;1.10;;;;;;;10.80;71.83;98481.75;5137251;27;20178;-89
2021/12/05 03:15:09;;;;;;;2.07;1.10;;;;;;;10.85;71.59;98480.50;5137256;27;20216;-89
2021/12/05 03:17:35;;;;;;;1.03;0.70;;;;;;;10.93;71.24;98474.78;5119475;27;20168;-89
2021/12/05 03:20:01;;;;;;;1.10;0.57;;;;;;;10.92;71.26;98468.72;5137446;27;20167;-88
2021/12/05 03:22:26;;;;;;;1.80;1.07;;;;;;;10.74;71.54;98464.66;5119267;27;20193;-89
2021/12/05 03:24:52;;;;;;;5.40;0.87;;;;;;;10.74;71.80;98467.28;5118739;27;20229;-89
2021/12/05 03:27:17;;;;;;;1.17;0.83;;;;;;;10.80;71.64;98466.00;5119234;27;20659;-89
2021/12/05 03:29:43;;;;;;;2.93;1.40;;;;;;;10.85;71.69;98471.81;5119166;27;20239;-88
2021/12/05 03:32:08;;;;;;;1.97;0.80;;;;;;;10.88;71.28;98469.84;5119618;27;20179;-88
2021/12/05 03:34:34;;;;;;;1.37;0.73;;;;;;;10.85;71.61;98469.19;5137147;27;20199;-89
2021/12/05 03:37:00;;;;;;;3.07;1.23;;;;;;;10.93;71.17;98472.16;5118985;27;20228;-89
2021/12/05 03:39:27;;;;;;;3.20;1.43;;;;;;;10.93;70.76;98459.88;5136723;27;20183;-89
2021/12/05 03:41:53;;;;;;;3.07;1.37;;;;;;;10.94;71.12;98458.13;5136783;27;20163;-88
2021/12/05 03:44:21;;;;;;;4.70;1.03;;;;;;;10.91;71.11;98455.69;5118587;27;20620;-89
2021/12/05 03:46:50;;;;;;;3.13;1.50;;;;;;;10.88;71.08;98455.88;5119029;27;20186;-89
2021/12/05 03:49:16;;;;;;;3.37;1.73;;;;;;;10.91;70.94;98455.69;5118485;27;20179;-88
2021/12/05 03:51:49;;;;;;;3.40;1.40;;;;;;;10.86;71.27;98463.00;5118721;27;20171;-88
2021/12/05 03:54:15;;;;;;;4.03;1.03;;;;;;;10.69;72.06;98460.66;5118407;27;20349;-88
2021/12/05 03:56:41;;;;;;;2.80;1.00;;;;;;;10.60;72.70;98456.81;5136436;27;20530;-88
2021/12/05 03:59:10;;;;;;;1.73;0.80;;;;;;;10.56;73.62;98462.34;5136405;27;20210;-88
2021/12/05 04:01:36;;;;;;;1.50;0.77;;;;;;;10.57;73.13;98456.16;5136606;27;20314;-88
2021/12/05 04:04:03;;;;;;;2.40;1.50;;;;;;;10.58;73.37;98469.19;5136334;27;20178;-88
2021/12/05 04:06:29;;;;;;;3.77;1.77;;;;;;;10.64;73.24;98467.97;5118280;27;20187;-88
2021/12/05 04:08:58;;;;;;;2.47;1.30;;;;;;;10.77;73.25;98477.53;5118344;27;20178;-88
2021/12/05 04:11:30;;;;;;;3.83;1.83;;;;;;;10.86;72.59;98478.75;5136160;27;20186;-88
2021/12/05 04:13:56;;;;;;;3.73;1.73;;;;;;;10.81;72.70;98480.81;5117445;27;20592;-88
2021/12/05 04:16:23;;;;;;;2.60;1.37;;;;;;;10.53;73.51;98476.50;5117860;27;20181;-88
2021/12/05 04:18:49;;;;;;;3.53;1.53;;;;;;;10.57;73.79;98477.13;5118218;27;20211;-88
2021/12/05 04:21:16;;;;;;;6.70;2.30;;;;;;;10.66;73.44;98473.94;5117818;27;20210;-88
2021/12/05 04:23:42;;;;;;;4.27;1.53;;;;;;;10.61;73.77;98473.38;5117857;27;20198;-88
2021/12/05 04:26:09;;;;;;;3.27;1.87;;;;;;;10.41;74.53;98467.63;5135834;27;20269;-88
2021/12/05 04:28:35;;;;;;;4.90;2.00;;;;;;;10.41;74.84;98467.63;5117741;27;20525;-88
2021/12/05 04:31:01;;;;;;;3.73;2.00;;;;;;;10.57;74.17;98479.75;5117640;27;20674;-89
2021/12/05 04:33:27;;;;;;;3.73;1.47;;;;;;;10.69;74.01;98490.28;5135490;27;20173;-88
2021/12/05 04:35:53;;;;;;;4.00;2.20;;;;;;;10.77;73.90;98489.84;5117542;27;20167;-89
2021/12/05 04:38:18;;;;;;;3.20;1.70;;;;;;;10.83;73.04;98494.66;5135551;27;20170;-89
2021/12/05 04:40:47;;;;;;;9.43;3.40;;;;;;;10.88;73.31;98492.59;5135550;27;20588;-89
2021/12/05 04:43:13;;;;;;;5.17;2.23;;;;;;;10.94;73.12;98498.28;5117355;27;20617;-89
2021/12/05 04:45:40;;;;;;;3.77;1.80;;;;;;;10.98;73.01;98505.00;5117751;27;20205;-88
2021/12/05 04:48:07;;;;;;;3.43;2.13;;;;;;;11.02;72.82;98501.25;5135611;27;20175;-89
2021/12/05 04:50:33;;;;;;;3.63;2.17;;;;;;;11.01;72.58;98499.56;5135256;27;20258;-88
2021/12/05 04:52:59;;;;;;;4.80;2.40;;;;;;;10.97;72.62;98500.72;5117291;27;20232;-89
2021/12/05 04:55:25;;;;;;;6.97;3.07;;;;;;;11.06;72.42;98497.50;5117490;27;20179;-89
2021/12/05 04:57:52;;;;;;;5.77;2.20;;;;;;;11.14;71.91;98515.34;5135169;27;20612;-88
2021/12/05 05:00:33;;;;;;;4.60;2.13;;;;;;;11.13;71.57;98521.56;5117039;27;20171;-89
2021/12/05 05:02:59;;;;;;;9.10;3.37;;;;;;;11.03;71.83;98520.47;5135810;27;20159;-89
2021/12/05 05:05:27;;;;;;;5.17;2.33;;;;;;;11.02;72.13;98524.03;5117007;27;20567;-89
2021/12/05 05:07:53;;;;;;;6.20;2.90;;;;;;;10.97;72.35;98519.06;5116911;27;20189;-89
2021/12/05 05:10:25;;;;;;;4.67;2.33;;;;;;;10.98;72.31;98525.13;5117041;27;20182;-89
2021/12/05 05:12:51;;;;;;;4.10;2.37;;;;;;;10.98;72.20;98527.75;5134924;27;20583;-89
2021/12/05 05:15:21;;;;;;;4.33;2.00;;;;;;;10.99;72.07;98534.69;5135111;27;20680;-89
2021/12/05 05:17:49;;;;;;;6.03;3.43;;;;;;;11.00;71.79;98539.03;5116771;27;20167;-89
2021/12/05 05:20:40;;;;;;;7.67;3.33;;;;;;;10.96;71.93;98548.00;5116717;27;20175;-89
2021/12/05 05:23:24;;;;;;;7.30;2.57;;;;;;;10.92;72.17;98552.63;5135063;27;20218;-88
2021/12/05 05:26:23;;;;;;;7.70;3.10;;;;;;;10.88;72.64;98556.34;5134200;27;20232;-89
2021/12/05 05:44:41;;;;;;;5.77;2.63;;;;;;;10.77;73.37;98537.00;5134446;27;20163;-88
2021/12/05 05:49:51;;;;;;;7.80;2.50;;;;;;;10.62;74.50;98543.19;5134806;27;20259;-89
2021/12/05 05:52:17;;;;;;;7.17;2.60;;;;;;;10.62;74.19;98549.28;5134716;28;20162;-89
2021/12/05 05:54:46;;;;;;;5.83;2.80;;;;;;;10.71;73.67;98548.72;5134354;28;20195;-89
2021/12/05 05:57:22;;;;;;;9.57;4.20;;;;;;;10.63;74.10;98556.22;5134395;28;20202;-88
2021/12/05 06:05:10;;;;;;;9.90;3.87;;;;;;;10.55;74.26;98568.09;5134730;28;20662;-89
2021/12/05 06:07:42;;;;;;;9.60;3.97;;;;;;;10.52;74.40;98565.66;5116514;28;20273;-89
2021/12/05 06:10:10;;;;;;;7.80;3.80;;;;;;;10.43;75.02;98570.53;5116897;28;20167;-88
2021/12/05 06:12:37;;;;;;;12.73;4.67;;;;;;;10.59;75.01;98575.66;5116339;28;20186;-89
2021/12/05 06:15:05;;;;;;;6.17;3.20;;;;;;;10.60;74.43;98576.50;5134514;28;20174;-89
2021/12/05 06:17:30;;;;;;;10.27;3.67;;;;;;;10.53;74.40;98585.69;5116167;28;20707;-89
2021/12/05 06:19:56;;;;;;;7.80;4.03;;;;;;;10.52;74.40;98587.47;5115936;28;20216;-89
2021/12/05 06:22:22;;;;;;;13.37;4.50;;;;;;;10.60;74.26;98598.31;5116376;28;20167;-89
2021/12/05 06:24:47;;;;;;;10.23;5.13;;;;;;;10.56;74.62;98590.75;5116464;28;20187;-89
2021/12/05 06:27:12;;;;;;;8.50;3.93;;;;;;;10.53;74.42;98593.56;5115809;28;20187;-88
2021/12/05 06:29:45;;;;;;;11.63;6.43;;;;;;;10.59;74.17;98601.03;5115972;28;20216;-89
2021/12/05 06:38:06;;;;;;;12.40;5.40;;;;;;;10.37;74.28;98599.72;5136013;27;20164;-89
2021/12/05 06:46:04;;;;;;;14.90;6.10;;;;;;;10.34;74.81;98586.81;5098745;27;20263;-89
2021/12/05 06:48:30;;;;;;;12.60;5.77;;;;;;;10.34;75.37;98586.81;5119705;27;20258;-89
2021/12/05 06:50:56;;;;;;;14.50;5.90;;;;;;;10.30;75.29;98589.69;5119891;27;20264;-89
2021/12/05 06:53:21;;;;;;;16.07;7.23;;;;;;;10.39;75.39;98590.00;5120188;27;20175;-89
2021/12/05 06:55:47;;;;;;;16.43;7.73;;;;;;;10.33;75.38;98598.22;5119838;27;20646;-88
2021/12/05 06:58:12;;;;;;;13.10;7.47;;;;;;;10.38;75.45;98606.63;5137856;27;20620;-89
2021/12/05 07:00:38;;;;;;;13.80;5.43;;;;;;;10.42;75.28;98602.06;5120242;27;20185;-89
2021/12/05 07:03:05;;;;;;;14.37;5.73;;;;;;;10.37;75.08;98609.38;5137780;27;20592;-88
2021/12/05 07:08:02;;;;;;;14.33;5.43;;;;;;;10.53;74.34;98618.00;5137494;27;20168;-88
2021/12/05 07:10:30;;;;;;;16.10;6.87;;;;;;;10.43;73.95;98620.31;5120203;27;20189;-89
2021/12/05 07:13:33;;;;;;;15.07;6.60;;;;;;;10.39;74.19;98616.19;5137769;27;20188;-89
2021/12/05 07:24:09;;;;;;;14.47;5.87;;;;;;;10.49;74.43;98613.84;5137255;27;20614;-89
2021/12/05 07:40:27;;;;;;;14.87;6.00;;;;;;;10.66;74.61;98602.34;5137554;27;20253;-89
2021/12/05 07:43:04;;;;;;;18.57;7.97;;;;;;;10.58;74.99;98609.84;5118608;27;20166;-89
2021/12/05 07:45:37;;;;;;;23.10;8.63;;;;;;;10.63;74.92;98607.78;5118478;27;20182;-89
2021/12/05 07:48:14;;;;;;;21.00;8.73;;;;;;;10.74;75.43;98613.22;5136958;27;20167;-89
2021/12/05 07:53:52;;;;;;;14.70;5.77;;;;;;;10.83;74.33;98604.75;5132410;27;20197;-88
2021/12/05 07:56:30;;;;;;;18.73;6.90;;;;;;;10.83;74.25;98603.00;5136759;27;20148;-89
2021/12/05 08:15:20;;;;;;;22.57;7.93;;;;;;;11.09;74.52;98596.13;5127837;27;20170;-89
2021/12/05 08:17:53;;;;;;;22.67;7.57;;;;;;;11.17;74.38;98583.34;5117925;27;20162;-88
2021/12/05 08:20:23;;;;;;;20.20;7.47;;;;;;;11.21;73.98;98582.25;5107142;28;20309;-89
2021/12/05 08:22:49;;;;;;;18.77;6.97;;;;;;;11.32;73.85;98584.19;5116056;27;20283;-89
2021/12/05 08:25:14;;;;;;;22.07;7.80;;;;;;;11.28;73.07;98580.06;5118593;27;20636;-89
2021/12/05 08:27:47;;;;;;;19.10;7.50;;;;;;;11.28;72.95;98580.91;5135852;27;20648;-89
2021/12/05 08:30:21;;;;;;;20.40;8.13;;;;;;;11.26;73.52;98588.03;5135915;27;20173;-89
2021/12/05 08:35:37;;;;;;;26.07;9.50;;;;;;;11.47;72.80;98598.94;5135966;27;20635;-89
2021/12/05 08:46:20;;;;;;;23.50;8.20;;;;;;;11.43;72.72;98595.66;5135731;27;20186;-88
2021/12/05 09:50:59;;;;;;;10.40;3.80;;;;;;;11.96;73.04;98544.03;5114673;28;20220;-88
2021/12/05 10:13:12;;;;;;;10.47;3.60;;;;;;;12.36;70.03;98514.09;5115939;28;20579;-89
2021/12/05 10:35:27;;;;;;;10.20;4.13;;;;;;;12.29;70.21;98486.56;5117949;28;20174;-89
2021/12/05 10:38:03;;;;;;;11.70;3.73;;;;;;;12.29;70.23;98487.41;5118064;28;20167;-89
2021/12/05 10:40:42;;;;;;;12.97;4.03;;;;;;;12.29;70.53;98483.91;5099797;28;20198;-89
2021/12/05 10:43:18;;;;;;;16.37;5.00;;;;;;;12.22;70.74;98482.69;5099418;28;20164;-89
2021/12/05 10:45:48;;;;;;;8.77;4.23;;;;;;;12.23;70.60;98487.00;5099339;28;20184;-88
2021/12/05 10:48:30;;;;;;;19.93;5.93;;;;;;;12.16;70.63;98485.72;5099421;28;20171;-89
2021/12/05 10:51:08;;;;;;;13.10;5.07;;;;;;;12.10;71.08;98487.00;5117462;28;20172;-89
2021/12/05 10:53:47;;;;;;;13.83;3.57;;;;;;;12.25;69.97;98485.09;5099526;28;20160;-89
2021/12/05 10:56:23;;;;;;;11.83;4.60;;;;;;;12.22;70.81;98478.28;5116979;28;20214;-88
2021/12/05 10:58:51;;;;;;;16.83;5.07;;;;;;;12.08;71.27;98473.13;5099088;28;20258;-88
2021/12/05 11:01:19;;;;;;;19.27;5.90;;;;;;;12.14;70.71;98471.84;5099025;28;20590;-89
2021/12/05 11:03:47;;;;;;;20.23;6.47;;;;;;;12.29;70.86;98476.03;5099428;28;20171;-88
2021/12/05 11:06:17;;;;;;;17.97;5.97;;;;;;;12.43;70.71;98472.44;5098853;28;20215;-89
2021/12/05 11:08:42;;;;;;;15.47;5.47;;;;;;;12.18;70.22;98473.34;5098985;28;20172;-89
2021/12/05 11:11:14;;;;;;;20.00;6.23;;;;;;;12.23;70.48;98465.97;5098879;28;20522;-89
2021/12/05 11:13:43;;;;;;;19.80;5.80;;;;;;;12.26;70.77;98469.22;5099634;28;20186;-89
2021/12/05 11:16:30;;;;;;;19.63;5.73;;;;;;;12.40;69.83;98454.25;5117264;28;20210;-89
2021/12/05 11:18:56;;;;;;;15.87;7.03;;;;;;;12.45;69.78;98466.13;5117202;28;20189;-89
2021/12/05 11:21:32;;;;;;;17.73;6.93;;;;;;;12.39;70.21;98461.34;5116879;28;20172;-88
2021/12/05 11:24:23;;;;;;;15.73;6.07;;;;;;;12.46;70.18;98444.16;5097123;28;20568;-88
2021/12/05 11:27:08;;;;;;;11.40;3.90;;;;;;;12.63;69.60;98443.78;5098833;28;20184;-89
2021/12/05 11:29:48;;;;;;;15.73;6.13;;;;;;;12.61;69.33;98440.44;5116824;28;20156;-88
2021/12/05 11:32:33;;;;;;;34.87;9.53;;;;;;;12.68;68.93;98441.66;5098605;28;20528;-88
2021/12/05 11:35:08;;;;;;;18.97;7.27;;;;;;;12.72;68.59;98432.63;5116978;28;20167;-89
2021/12/05 11:37:53;;;;;;;30.43;9.03;;;;;;;12.81;68.69;98441.66;5116351;28;20156;-89
2021/12/05 11:40:19;;;;;;;25.33;8.13;;;;;;;12.82;68.61;98444.16;5098405;28;20167;-88
2021/12/05 11:43:01;;;;;;;23.17;9.20;;;;;;;12.89;68.19;98439.31;5116817;28;20682;-88
2021/12/05 11:45:28;;;;;;;30.83;8.87;;;;;;;12.91;67.83;98438.25;5116537;28;20151;-88
2021/12/05 11:47:54;;;;;;;22.90;7.23;;;;;;;12.88;67.75;98425.31;5116214;28;20168;-88
2021/12/05 11:50:33;;;;;;;23.07;8.63;;;;;;;12.78;67.77;98416.41;5098355;28;20176;-88
2021/12/05 11:52:59;;;;;;;29.17;8.83;;;;;;;12.84;67.56;98408.06;5116490;28;20161;-88
2021/12/05 11:55:28;;;;;;;37.17;13.03;;;;;;;12.90;68.35;98388.34;5116171;28;20172;-88
2021/12/05 11:57:53;;;;;;;21.73;7.33;;;;;;;12.40;69.44;98397.28;5097982;28;20170;-88
2021/12/05 12:00:24;;;;;;;28.37;7.70;;;;;;;12.50;69.56;98400.13;5098756;28;20242;-88
2021/12/05 12:02:51;;;;;;;21.80;6.83;;;;;;;12.76;69.03;98397.25;5097946;28;20174;-88
2021/12/05 12:05:23;;;;;;;13.50;6.63;;;;;;;12.86;68.44;98398.28;5098105;28;20176;-88
2021/12/05 12:08:02;;;;;;;27.20;10.03;;;;;;;12.88;69.03;98400.78;5098943;28;20543;-88
2021/12/05 12:10:45;;;;;;;28.00;10.27;;;;;;;12.97;69.47;98404.53;5097738;28;20260;-88
2021/12/05 12:13:15;;;;;;;32.00;10.63;;;;;;;13.09;68.21;98403.66;5097857;28;20255;-88
2021/12/05 12:15:43;;;;;;;28.80;8.77;;;;;;;13.21;67.39;98400.09;5097815;28;20217;-88
2021/12/05 12:18:33;;;;;;;31.07;10.80;;;;;;;13.18;67.48;98398.53;5097578;28;20271;-88
2021/12/05 12:21:00;;;;;;;22.77;10.07;;;;;;;13.21;67.98;98385.16;5115074;28;20181;-89
2021/12/05 12:23:26;;;;;;;26.50;9.70;;;;;;;13.24;67.87;98391.97;5104376;27;20654;-88
2021/12/05 12:25:55;;;;;;;26.23;9.27;;;;;;;13.36;67.70;98377.91;5117636;27;20199;-89
2021/12/05 12:28:21;;;;;;;22.37;8.60;;;;;;;13.37;66.83;98379.56;5136297;27;20207;-88
2021/12/05 12:30:55;;;;;;;23.07;9.07;;;;;;;13.31;66.84;98374.78;5117722;27;20614;-89
2021/12/05 12:33:26;;;;;;;43.53;9.83;;;;;;;13.43;67.40;98373.84;5118468;27;20173;-88
2021/12/05 12:35:52;;;;;;;32.07;8.97;;;;;;;13.53;66.58;98375.66;5135930;27;20665;-88
2021/12/05 12:38:21;;;;;;;30.90;10.50;;;;;;;13.57;66.46;98373.66;5118186;27;20177;-88
2021/12/05 12:40:58;;;;;;;22.93;10.13;;;;;;;13.66;65.87;98372.09;5117735;27;20210;-89
2021/12/05 12:43:27;;;;;;;46.47;12.40;;;;;;;13.74;64.64;98375.81;5136270;27;20161;-89
2021/12/05 12:45:52;;;;;;;39.17;13.67;;;;;;;13.67;65.03;98374.63;5135395;27;20203;-88
2021/12/05 12:48:18;;;;;;;47.63;11.80;;;;;;;13.61;64.97;98382.97;5135957;27;20167;-88
2021/12/05 12:50:53;;;;;;;40.13;13.87;;;;;;;13.45;65.18;98393.00;5135690;27;20165;-88
2021/12/05 12:53:23;;;;;;;39.97;15.87;;;;;;;13.49;65.82;98394.47;5110043;27;20174;-89
2021/12/05 12:55:54;;;;;;;33.37;12.53;;;;;;;13.51;65.19;98385.47;5135834;27;20162;-88
2021/12/05 12:58:39;;;;;;;34.20;13.63;;;;;;;13.52;65.38;98394.22;5135594;27;20151;-88
2021/12/05 13:04:33;;;;;;;34.40;12.83;;;;;;;13.36;66.01;98391.06;5135797;27;20535;-88
2021/12/05 13:12:41;;;;;;;35.73;14.10;;;;;;;13.47;66.19;98393.72;5128866;27;20253;-88
2021/12/05 13:15:09;;;;;;;38.27;12.90;;;;;;;13.50;65.41;98398.75;5116994;27;20170;-88
2021/12/05 13:17:44;;;;;;;35.20;14.00;;;;;;;13.63;65.13;98396.84;5134939;27;20166;-88
2021/12/05 13:20:12;;;;;;;35.83;14.03;;;;;;;13.68;65.11;98405.25;5134875;27;20258;-89
2021/12/05 13:22:59;;;;;;;38.20;12.43;;;;;;;13.72;65.16;98404.06;5135134;27;20182;-88
2021/12/05 13:25:25;;;;;;;31.07;11.00;;;;;;;13.69;64.60;98401.66;5096678;28;20163;-88
2021/12/05 13:27:51;;;;;;;26.57;11.80;;;;;;;13.74;64.97;98399.50;5114784;28;20189;-88
2021/12/05 13:30:31;;;;;;;26.00;11.10;;;;;;;13.69;64.94;98393.75;5114230;28;20175;-88
2021/12/05 13:33:18;;;;;;;28.03;10.30;;;;;;;13.70;65.30;98398.09;5114159;28;20176;-88
2021/12/05 13:35:43;;;;;;;30.03;11.53;;;;;;;13.72;64.85;98397.94;5114193;28;20170;-88
2021/12/05 13:38:33;;;;;;;24.17;8.77;;;;;;;13.63;65.18;98402.13;5114206;28;20179;-88
2021/12/05 13:41:19;;;;;;;23.13;11.70;;;;;;;13.70;64.94;98390.19;5096147;28;20194;-88
2021/12/05 13:44:01;;;;;;;24.90;11.23;;;;;;;13.73;65.02;98391.75;5113635;28;20204;-88
2021/12/05 13:46:31;;;;;;;31.00;11.60;;;;;;;13.70;65.36;98403.34;5096408;28;20298;-88
2021/12/05 13:48:59;;;;;;;26.77;11.67;;;;;;;13.76;65.14;98399.38;5113836;28;20171;-88
2021/12/05 13:51:26;;;;;;;34.23;12.23;;;;;;;13.83;64.59;98393.53;5114843;28;20170;-88
2021/12/05 13:53:52;;;;;;;39.83;13.53;;;;;;;13.80;64.47;98396.41;5097057;28;20202;-88
2021/12/05 13:56:24;;;;;;;30.67;11.13;;;;;;;13.80;64.57;98400.84;5095838;28;20527;-88
2021/12/05 13:58:56;;;;;;;23.40;9.13;;;;;;;13.73;64.85;98400.44;5096601;28;20221;-89
2021/12/05 14:01:24;;;;;;;29.73;10.63;;;;;;;13.66;65.15;98398.41;5096788;28;20241;-88
2021/12/05 14:04:16;;;;;;;20.70;9.37;;;;;;;13.59;65.66;98405.97;5114089;28;20660;-89
2021/12/05 14:07:07;;;;;;;28.17;10.47;;;;;;;13.57;65.88;98400.78;5114118;28;20190;-89
2021/12/05 14:09:47;;;;;;;41.07;12.53;;;;;;;13.59;66.14;98399.84;5096761;28;20172;-88
2021/12/05 14:12:27;;;;;;;28.37;9.13;;;;;;;13.51;66.07;98410.97;5095851;28;20169;-88
2021/12/05 14:14:59;;;;;;;28.97;10.07;;;;;;;13.57;66.33;98410.50;5096148;28;20185;-88
2021/12/05 14:17:26;;;;;;;29.23;11.40;;;;;;;13.57;66.38;98419.22;5096918;28;20187;-89
2021/12/05 14:20:07;;;;;;;29.33;10.97;;;;;;;13.57;65.92;98415.78;5113907;28;20195;-88
2021/12/05 14:22:35;;;;;;;30.17;14.60;;;;;;;13.47;66.32;98409.50;5096048;28;20179;-89
2021/12/05 14:25:06;;;;;;;32.60;12.23;;;;;;;13.40;66.83;98416.19;5095909;28;20235;-89
2021/12/05 14:27:36;;;;;;;30.13;11.00;;;;;;;13.46;66.85;98418.38;5113971;28;20644;-88
2021/12/05 14:30:05;;;;;;;27.57;9.43;;;;;;;13.38;66.80;98405.78;5095762;28;20227;-88
2021/12/05 14:32:34;;;;;;;24.97;9.77;;;;;;;13.36;67.31;98412.13;5113487;28;20173;-88
2021/12/05 14:35:10;;;;;;;27.07;11.53;;;;;;;13.38;66.99;98410.22;5096038;28;20174;-89
2021/12/05 14:37:38;;;;;;;25.70;11.93;;;;;;;13.38;67.21;98404.94;5096030;28;20268;-88
2021/12/05 14:40:10;;;;;;;32.07;12.10;;;;;;;13.41;66.92;98410.00;5095515;28;20177;-88
2021/12/05 14:42:38;;;;;;;27.33;10.67;;;;;;;13.43;66.98;98410.72;5096311;28;20196;-88
2021/12/05 14:45:11;;;;;;;30.27;11.33;;;;;;;13.37;67.22;98409.38;5095773;28;20177;-88
2021/12/05 14:47:36;;;;;;;27.33;10.50;;;;;;;13.36;67.38;98412.94;5113656;28;20203;-88
2021/12/05 14:50:23;;;;;;;29.77;11.87;;;;;;;13.30;67.56;98404.69;5113956;28;20170;-88
2021/12/05 14:52:54;;;;;;;31.03;12.10;;;;;;;13.24;67.59;98410.41;5095923;28;20531;-88
2021/12/05 14:55:23;;;;;;;42.20;14.60;;;;;;;13.30;67.61;98420.47;5113484;28;20227;-88
2021/12/05 14:57:57;;;;;;;36.53;13.50;;;;;;;13.29;67.63;98416.16;5095261;28;20184;-88
2021/12/05 15:00:36;;;;;;;35.93;12.93;;;;;;;13.28;67.83;98409.22;5100043;28;20164;-88
2021/12/05 15:03:13;;;;;;;32.23;13.03;;;;;;;13.25;67.57;98414.72;5099033;28;20168;-88
2021/12/05 15:05:42;;;;;;;30.87;10.63;;;;;;;13.23;67.69;98411.38;5098988;28;20168;-88
2021/12/05 15:08:10;;;;;;;28.57;10.13;;;;;;;13.25;67.99;98414.72;5117243;28;20200;-88
2021/12/05 15:10:37;;;;;;;28.40;10.57;;;;;;;13.12;68.34;98411.31;5098963;28;20187;-88
2021/12/05 15:13:03;;;;;;;24.07;9.47;;;;;;;12.91;69.59;98417.19;5099228;28;20174;-88
2021/12/05 15:15:29;;;;;;;22.30;8.13;;;;;;;12.73;70.45;98413.28;5098846;28;20244;-88
2021/12/05 15:17:56;;;;;;;24.33;8.60;;;;;;;12.62;71.58;98421.09;5117273;28;20202;-88
2021/12/05 15:20:26;;;;;;;18.53;7.97;;;;;;;12.69;70.88;98422.31;5116986;28;20170;-88
2021/12/05 15:22:55;;;;;;;21.17;7.67;;;;;;;12.86;70.62;98415.84;5100782;27;20620;-88
2021/12/05 15:25:27;;;;;;;20.27;8.37;;;;;;;12.77;70.86;98419.97;5119891;27;20660;-88
2021/12/05 15:27:53;;;;;;;22.37;7.23;;;;;;;12.88;70.92;98417.41;5119005;27;20174;-88
2021/12/05 15:30:23;;;;;;;18.17;7.40;;;;;;;13.00;70.83;98414.84;5119797;27;20180;-88
2021/12/05 15:32:55;;;;;;;17.73;7.27;;;;;;;13.10;69.95;98419.31;5136944;27;20175;-88
2021/12/05 15:35:22;;;;;;;25.20;8.27;;;;;;;13.10;69.70;98421.94;5118935;27;20175;-88
2021/12/05 15:38:03;;;;;;;18.93;7.77;;;;;;;13.12;69.77;98424.47;5137181;27;20576;-88
2021/12/05 15:40:32;;;;;;;20.53;7.53;;;;;;;12.99;70.36;98439.47;5119005;27;20173;-88
2021/12/05 15:43:00;;;;;;;19.97;6.97;;;;;;;12.98;70.89;98433.34;5137305;27;20171;-88
2021/12/05 15:45:26;;;;;;;30.97;7.97;;;;;;;13.01;70.93;98427.03;5137022;27;20171;-89
2021/12/05 15:47:52;;;;;;;23.70;7.63;;;;;;;13.04;70.96;98426.81;5118774;27;20203;-88
2021/12/05 15:50:25;;;;;;;16.47;7.00;;;;;;;13.10;70.86;98421.13;5118910;27;20206;-88
2021/12/05 15:52:55;;;;;;;18.47;7.37;;;;;;;13.10;70.65;98424.56;5118436;27;20262;-88
2021/12/05 15:55:31;;;;;;;32.97;8.20;;;;;;;13.10;71.06;98429.84;5137114;27;20540;-88
2021/12/05 15:58:09;;;;;;;22.37;8.47;;;;;;;13.16;70.78;98433.81;5118602;27;20176;-88
2021/12/05 16:00:54;;;;;;;24.30;9.10;;;;;;;13.16;70.53;98428.56;5118334;27;20266;-88
2021/12/05 16:03:36;;;;;;;25.73;7.83;;;;;;;13.13;71.05;98426.97;5119127;27;20172;-88
2021/12/05 16:06:04;;;;;;;18.73;7.00;;;;;;;13.16;71.22;98426.75;5136945;27;20203;-88
2021/12/05 16:08:31;;;;;;;28.17;9.80;;;;;;;13.11;71.61;98420.16;5118230;27;20532;-88
2021/12/05 16:10:59;;;;;;;23.03;7.83;;;;;;;13.19;71.46;98421.28;5135443;27;20257;-88
2021/12/05 16:13:46;;;;;;;33.70;10.17;;;;;;;13.18;71.42;98424.03;5118588;27;20172;-88
2021/12/05 16:16:16;;;;;;;18.37;7.17;;;;;;;13.19;71.33;98416.00;5117960;27;20240;-88
2021/12/05 16:18:46;;;;;;;16.33;6.80;;;;;;;13.20;71.59;98432.66;5118945;27;20176;-88
2021/12/05 16:21:38;;;;;;;17.13;7.63;;;;;;;13.21;71.55;98426.41;5117887;27;20263;-88
2021/12/05 16:24:08;;;;;;;27.87;9.80;;;;;;;13.26;71.56;98426.94;5132348;27;20200;-88
2021/12/05 16:26:35;;;;;;;24.10;9.70;;;;;;;13.28;71.06;98419.75;5118531;27;20680;-88
2021/12/05 16:29:06;;;;;;;34.73;8.53;;;;;;;13.30;71.00;98421.31;5135963;27;20505;-88
2021/12/05 16:31:43;;;;;;;23.70;9.47;;;;;;;13.30;70.89;98423.13;5136103;27;20161;-88
2021/12/05 16:34:17;;;;;;;35.07;10.13;;;;;;;13.28;70.95;98425.03;5118012;27;20165;-88
2021/12/05 16:36:54;;;;;;;43.17;11.13;;;;;;;13.31;71.00;98427.44;5118019;27;20159;-88
2021/12/05 16:39:27;;;;;;;43.43;13.20;;;;;;;13.25;70.87;98426.09;5136277;27;20241;-88
2021/12/05 16:42:03;;;;;;;31.03;9.77;;;;;;;13.23;70.92;98427.16;5117561;27;20179;-88
2021/12/05 16:44:30;;;;;;;40.93;13.13;;;;;;;13.17;71.39;98432.88;5136510;27;20152;-88
2021/12/05 16:47:01;;;;;;;46.97;12.73;;;;;;;13.16;71.32;98433.81;5135696;27;20290;-88
2021/12/05 16:49:31;;;;;;;37.77;11.77;;;;;;;13.13;71.13;98431.44;5117344;27;20252;-88
2021/12/05 16:52:01;;;;;;;37.00;13.50;;;;;;;13.12;71.51;98432.38;5118196;27;20176;-88
2021/12/05 16:54:32;;;;;;;41.47;13.40;;;;;;;13.06;71.38;98430.16;5135352;27;20655;-88
2021/12/05 16:57:06;;;;;;;42.97;14.57;;;;;;;12.93;72.06;98433.69;5135538;27;20598;-88
2021/12/05 16:59:37;;;;;;;46.00;15.43;;;;;;;12.92;72.00;98439.06;5135647;27;20156;-88
2021/12/05 17:02:24;;;;;;;52.67;14.23;;;;;;;12.82;72.03;98443.31;5117803;27;20168;-89
2021/12/05 17:05:00;;;;;;;48.27;12.93;;;;;;;12.81;72.62;98444.28;5117501;27;20223;-88
2021/12/05 17:07:54;;;;;;;46.73;17.13;;;;;;;12.72;72.76;98451.03;5117006;27;20686;-89